createdAt,value
2016-12-24T00:00:22.450Z,975.04
2016-12-24T00:00:52.490Z,975.03
2016-12-24T00:01:22.529Z,975.02
2016-12-24T00:01:52.574Z,975.02
2016-12-24T00:02:22.609Z,975.04
2016-12-24T00:02:52.649Z,975.03
2016-12-24T00:03:22.686Z,975.03
2016-12-24T00:03:52.726Z,975.04
2016-12-24T00:04:22.769Z,975.06
2016-12-24T00:04:52.805Z,975.02
2016-12-24T00:05:22.853Z,975.06
2016-12-24T00:05:52.886Z,975.06
2016-12-24T00:06:22.927Z,975.03
2016-12-24T00:06:52.963Z,975.06
2016-12-24T00:07:23.003Z,975.01
2016-12-24T00:07:53.044Z,975.01
2016-12-24T00:08:23.082Z,975.07
2016-12-24T00:08:53.122Z,975.04
2016-12-24T00:09:23.162Z,975.04
2016-12-24T00:09:53.203Z,975.03
2016-12-24T00:10:23.242Z,975.02
2016-12-24T00:10:53.279Z,975.01
2016-12-24T00:11:23.320Z,974.98
2016-12-24T00:11:53.360Z,975.02
2016-12-24T00:12:23.397Z,975
2016-12-24T00:12:53.438Z,974.99
2016-12-24T00:13:23.476Z,974.99
2016-12-24T00:13:53.516Z,974.96
2016-12-24T00:14:23.554Z,974.98
2016-12-24T00:14:53.597Z,974.96
2016-12-24T00:15:23.636Z,974.99
2016-12-24T00:15:53.673Z,975
2016-12-24T00:16:23.715Z,975
2016-12-24T00:16:53.755Z,975
2016-12-24T00:17:23.793Z,975.02
2016-12-24T00:17:53.832Z,974.97
2016-12-24T00:18:23.874Z,975
2016-12-24T00:18:53.913Z,974.95
2016-12-24T00:19:23.952Z,975.02
2016-12-24T00:19:53.993Z,974.97
2016-12-24T00:20:24.031Z,974.97
2016-12-24T00:20:54.068Z,974.98
2016-12-24T00:21:24.109Z,974.98
2016-12-24T00:21:54.151Z,974.99
2016-12-24T00:22:24.188Z,974.99
2016-12-24T00:22:54.229Z,975
2016-12-24T00:23:24.270Z,974.99
2016-12-24T00:23:54.307Z,974.97
2016-12-24T00:24:24.346Z,974.96
2016-12-24T00:24:54.389Z,974.97
2016-12-24T00:25:24.427Z,975
2016-12-24T00:25:54.516Z,974.97
2016-12-24T00:26:24.507Z,974.94
2016-12-24T00:26:54.545Z,975.01
2016-12-24T00:27:24.584Z,974.97
2016-12-24T00:27:54.625Z,975.02
2016-12-24T00:28:24.665Z,974.97
2016-12-24T00:28:54.703Z,974.97
2016-12-24T00:29:24.742Z,974.93
2016-12-24T00:29:54.783Z,974.95
2016-12-24T00:30:24.821Z,974.91
2016-12-24T00:30:54.861Z,974.9
2016-12-24T00:31:24.899Z,974.89
2016-12-24T00:31:54.942Z,974.9
2016-12-24T00:32:24.980Z,974.88
2016-12-24T00:32:55.020Z,974.89
2016-12-24T00:33:25.061Z,974.86
2016-12-24T00:33:55.101Z,974.88
2016-12-24T00:34:25.138Z,974.9
2016-12-24T00:34:55.179Z,974.91
2016-12-24T00:35:25.220Z,974.9
2016-12-24T00:35:55.259Z,974.88
2016-12-24T00:36:25.297Z,974.91
2016-12-24T00:36:55.332Z,974.86
2016-12-24T00:37:25.375Z,974.84
2016-12-24T00:37:55.415Z,974.87
2016-12-24T00:38:25.455Z,974.88
2016-12-24T00:38:55.494Z,974.83
2016-12-24T00:39:25.532Z,974.86
2016-12-24T00:39:55.573Z,974.84
2016-12-24T00:40:25.619Z,974.83
2016-12-24T00:40:55.652Z,974.87
2016-12-24T00:41:25.692Z,974.87
2016-12-24T00:41:55.731Z,974.91
2016-12-24T00:42:25.780Z,974.88
2016-12-24T00:42:55.811Z,974.88
2016-12-24T00:43:25.849Z,974.9
2016-12-24T00:43:55.889Z,974.88
2016-12-24T00:44:25.929Z,974.86
2016-12-24T00:44:55.969Z,974.82
2016-12-24T00:45:26.010Z,974.88
2016-12-24T00:45:56.048Z,974.82
2016-12-24T00:46:26.087Z,974.84
2016-12-24T00:46:56.127Z,974.85
2016-12-24T00:47:26.174Z,974.85
2016-12-24T00:47:56.207Z,974.86
2016-12-24T00:48:26.245Z,974.85
2016-12-24T00:48:56.287Z,974.86
2016-12-24T00:49:26.326Z,974.84
2016-12-24T00:49:56.366Z,974.83
2016-12-24T00:50:26.402Z,974.76
2016-12-24T00:50:56.444Z,974.79
2016-12-24T00:51:26.483Z,974.82
2016-12-24T00:51:56.523Z,974.83
2016-12-24T00:52:26.560Z,974.81
2016-12-24T00:52:56.603Z,974.83
2016-12-24T00:53:26.641Z,974.84
2016-12-24T00:53:56.679Z,974.84
2016-12-24T00:54:26.721Z,974.83
2016-12-24T00:54:56.760Z,974.84
2016-12-24T00:55:26.799Z,974.76
2016-12-24T00:55:56.839Z,974.81
2016-12-24T00:56:26.879Z,974.8
2016-12-24T00:56:56.919Z,974.81
2016-12-24T00:57:26.965Z,974.79
2016-12-24T00:57:56.997Z,974.77
2016-12-24T00:58:27.037Z,974.73
2016-12-24T00:58:57.074Z,974.71
2016-12-24T00:59:27.116Z,974.71
2016-12-24T00:59:57.154Z,974.71
2016-12-24T01:00:27.194Z,974.71
2016-12-24T01:00:57.235Z,974.76
2016-12-24T01:01:27.273Z,974.77
2016-12-24T01:01:57.311Z,974.73
2016-12-24T01:02:27.351Z,974.74
2016-12-24T01:02:57.399Z,974.75
2016-12-24T01:03:27.431Z,974.75
2016-12-24T01:03:57.471Z,974.72
2016-12-24T01:04:27.511Z,974.67
2016-12-24T01:04:57.550Z,974.73
2016-12-24T01:05:27.589Z,974.71
2016-12-24T01:05:57.628Z,974.72
2016-12-24T01:06:27.672Z,974.68
2016-12-24T01:06:57.708Z,974.69
2016-12-24T01:07:27.747Z,974.64
2016-12-24T01:07:57.785Z,974.67
2016-12-24T01:08:27.824Z,974.68
2016-12-24T01:08:57.865Z,974.66
2016-12-24T01:09:27.906Z,974.64
2016-12-24T01:09:57.947Z,974.61
2016-12-24T01:10:27.985Z,974.62
2016-12-24T01:10:58.024Z,974.53
2016-12-24T01:11:28.064Z,974.54
2016-12-24T01:11:58.102Z,974.49
2016-12-24T01:12:28.144Z,974.49
2016-12-24T01:12:58.183Z,974.45
2016-12-24T01:13:28.224Z,974.37
2016-12-24T01:13:58.262Z,974.41
2016-12-24T01:14:28.300Z,974.39
2016-12-24T01:14:58.344Z,974.36
2016-12-24T01:15:28.384Z,974.35
2016-12-24T01:15:58.420Z,974.36
2016-12-24T01:16:28.459Z,974.33
2016-12-24T01:16:58.501Z,974.32
2016-12-24T01:17:28.541Z,974.32
2016-12-24T01:17:58.579Z,974.35
2016-12-24T01:18:28.619Z,974.37
2016-12-24T01:18:58.657Z,974.38
2016-12-24T01:19:28.699Z,974.4
2016-12-24T01:19:58.735Z,974.45
2016-12-24T01:20:28.777Z,974.51
2016-12-24T01:20:58.814Z,974.52
2016-12-24T01:21:28.856Z,974.52
2016-12-24T01:21:58.895Z,974.5
2016-12-24T01:22:28.934Z,974.58
2016-12-24T01:22:58.975Z,974.59
2016-12-24T01:23:29.013Z,974.57
2016-12-24T01:23:59.052Z,974.55
2016-12-24T01:24:29.093Z,974.68
2016-12-24T01:24:59.133Z,974.67
2016-12-24T01:25:29.172Z,974.73
2016-12-24T01:25:59.209Z,974.78
2016-12-24T01:26:29.250Z,974.74
2016-12-24T01:26:59.290Z,974.72
2016-12-24T01:27:29.329Z,974.66
2016-12-24T01:27:59.368Z,974.72
2016-12-24T01:28:29.410Z,974.64
2016-12-24T01:28:59.448Z,974.63
2016-12-24T01:29:29.488Z,974.62
2016-12-24T01:29:59.528Z,974.55
2016-12-24T01:30:29.564Z,974.54
2016-12-24T01:30:59.605Z,974.52
2016-12-24T01:31:29.646Z,974.49
2016-12-24T01:31:59.685Z,974.52
2016-12-24T01:32:29.725Z,974.51
2016-12-24T01:32:59.767Z,974.49
2016-12-24T01:33:29.807Z,974.47
2016-12-24T01:33:59.843Z,974.49
2016-12-24T01:34:29.883Z,974.5
2016-12-24T01:34:59.922Z,974.49
2016-12-24T01:35:29.961Z,974.5
2016-12-24T01:36:00.003Z,974.49
2016-12-24T01:36:30.043Z,974.5
2016-12-24T01:37:00.082Z,974.53
2016-12-24T01:37:30.120Z,974.52
2016-12-24T01:38:00.160Z,974.47
2016-12-24T01:38:30.197Z,974.52
2016-12-24T01:39:00.238Z,974.51
2016-12-24T01:39:30.279Z,974.5
2016-12-24T01:40:00.316Z,974.54
2016-12-24T01:40:30.360Z,974.58
2016-12-24T01:41:00.394Z,974.69
2016-12-24T01:41:30.436Z,974.67
2016-12-24T01:42:00.476Z,974.77
2016-12-24T01:42:30.816Z,974.8
2016-12-24T01:43:00.557Z,974.84
2016-12-24T01:43:30.595Z,974.88
2016-12-24T01:44:00.637Z,974.93
2016-12-24T01:44:30.673Z,974.93
2016-12-24T01:45:00.711Z,974.89
2016-12-24T01:45:30.752Z,974.81
2016-12-24T01:46:00.792Z,974.8
2016-12-24T01:46:30.832Z,974.78
2016-12-24T01:47:00.872Z,974.74
2016-12-24T01:47:30.910Z,974.66
2016-12-24T01:48:00.951Z,974.72
2016-12-24T01:48:30.991Z,974.71
2016-12-24T01:49:01.031Z,974.72
2016-12-24T01:49:31.071Z,974.75
2016-12-24T01:50:01.110Z,974.7
2016-12-24T01:50:31.148Z,974.73
2016-12-24T01:51:01.185Z,974.7
2016-12-24T01:51:31.227Z,974.72
2016-12-24T01:52:01.277Z,974.74
2016-12-24T01:52:31.306Z,974.78
2016-12-24T01:53:01.345Z,974.79
2016-12-24T01:53:31.385Z,974.78
2016-12-24T01:54:01.425Z,974.75
2016-12-24T01:54:31.464Z,974.73
2016-12-24T01:55:01.805Z,974.79
2016-12-24T01:55:31.546Z,974.76
2016-12-24T01:56:01.581Z,974.82
2016-12-24T01:56:31.623Z,974.83
2016-12-24T01:57:01.661Z,974.83
2016-12-24T01:57:31.703Z,974.85
2016-12-24T01:58:01.743Z,974.82
2016-12-24T01:58:31.778Z,974.83
2016-12-24T01:59:01.821Z,974.8
2016-12-24T01:59:31.860Z,974.82
2016-12-24T02:00:01.901Z,974.82
2016-12-24T02:00:31.939Z,974.82
2016-12-24T02:01:02.077Z,974.83
2016-12-24T02:01:32.016Z,974.81
2016-12-24T02:02:02.057Z,974.82
2016-12-24T02:02:32.094Z,974.81
2016-12-24T02:03:02.135Z,974.8
2016-12-24T02:03:32.175Z,974.8
2016-12-24T02:04:02.317Z,974.77
2016-12-24T02:04:32.253Z,974.79
2016-12-24T02:05:02.545Z,974.79
2016-12-24T02:05:32.332Z,974.81
2016-12-24T02:06:02.376Z,974.82
2016-12-24T02:06:32.412Z,974.84
2016-12-24T02:07:02.451Z,974.92
2016-12-24T02:07:32.492Z,974.9
2016-12-24T02:08:02.531Z,974.94
2016-12-24T02:08:32.573Z,974.86
2016-12-24T02:09:02.609Z,974.9
2016-12-24T02:09:32.649Z,974.95
2016-12-24T02:10:02.688Z,974.93
2016-12-24T02:10:32.729Z,974.94
2016-12-24T02:11:02.764Z,974.94
2016-12-24T02:11:32.807Z,974.92
2016-12-24T02:12:02.845Z,974.94
2016-12-24T02:12:32.887Z,974.93
2016-12-24T02:13:02.923Z,974.9
2016-12-24T02:13:32.964Z,974.92
2016-12-24T02:14:03.004Z,974.93
2016-12-24T02:14:33.043Z,974.92
2016-12-24T02:15:03.084Z,974.89
2016-12-24T02:15:33.122Z,974.92
2016-12-24T02:16:03.161Z,974.91
2016-12-24T02:16:33.201Z,974.91
2016-12-24T02:17:03.240Z,974.9
2016-12-24T02:17:33.292Z,974.85
2016-12-24T02:18:03.318Z,974.94
2016-12-24T02:18:33.361Z,974.95
2016-12-24T02:19:03.398Z,974.98
2016-12-24T02:19:33.436Z,975.02
2016-12-24T02:20:03.478Z,975.03
2016-12-24T02:20:33.517Z,975.02
2016-12-24T02:21:03.558Z,975
2016-12-24T02:21:33.597Z,975.04
2016-12-24T02:22:03.636Z,974.97
2016-12-24T02:22:33.678Z,974.98
2016-12-24T02:23:03.714Z,974.94
2016-12-24T02:23:33.752Z,974.97
2016-12-24T02:24:03.792Z,974.95
2016-12-24T02:24:33.833Z,974.98
2016-12-24T02:25:03.871Z,975
2016-12-24T02:25:33.909Z,974.95
2016-12-24T02:26:03.952Z,975.01
2016-12-24T02:26:33.991Z,975
2016-12-24T02:27:04.031Z,975.06
2016-12-24T02:27:34.073Z,975.06
2016-12-24T02:28:04.109Z,975.07
2016-12-24T02:28:34.147Z,975.1
2016-12-24T02:29:04.188Z,975.06
2016-12-24T02:29:34.232Z,975.09
2016-12-24T02:30:04.268Z,975.06
2016-12-24T02:30:34.309Z,975.11
2016-12-24T02:31:04.348Z,975.07
2016-12-24T02:31:34.386Z,975.09
2016-12-24T02:32:04.425Z,975.12
2016-12-24T02:32:34.465Z,975.11
2016-12-24T02:33:04.506Z,975.11
2016-12-24T02:33:34.546Z,975.13
2016-12-24T02:34:04.586Z,975.16
2016-12-24T02:34:34.619Z,975.19
2016-12-24T02:35:04.662Z,975.18
2016-12-24T02:35:34.702Z,975.23
2016-12-24T02:36:04.741Z,975.22
2016-12-24T02:36:34.779Z,975.25
2016-12-24T02:37:04.822Z,975.21
2016-12-24T02:37:34.861Z,975.21
2016-12-24T02:38:04.900Z,975.21
2016-12-24T02:38:34.938Z,975.24
2016-12-24T02:39:04.978Z,975.23
2016-12-24T02:39:35.018Z,975.21
2016-12-24T02:40:05.059Z,975.21
2016-12-24T02:40:35.098Z,975.18
2016-12-24T02:41:05.137Z,975.19
2016-12-24T02:41:35.177Z,975.14
2016-12-24T02:42:05.217Z,975.13
2016-12-24T02:42:35.254Z,975.14
2016-12-24T02:43:05.294Z,975.1
2016-12-24T02:43:35.335Z,975.12
2016-12-24T02:44:05.373Z,975.13
2016-12-24T02:44:35.414Z,975.14
2016-12-24T02:45:05.450Z,975.18
2016-12-24T02:45:35.492Z,975.1
2016-12-24T02:46:05.532Z,975.18
2016-12-24T02:46:35.573Z,975.17
2016-12-24T02:47:05.616Z,975.16
2016-12-24T02:47:35.653Z,975.18
2016-12-24T02:48:05.689Z,975.16
2016-12-24T02:48:35.729Z,975.12
2016-12-24T02:49:05.770Z,975.16
2016-12-24T02:49:35.811Z,975.19
2016-12-24T02:50:05.853Z,975.18
2016-12-24T02:50:35.888Z,975.14
2016-12-24T02:51:05.928Z,975.16
2016-12-24T02:51:35.967Z,975.16
2016-12-24T02:52:06.006Z,975.14
2016-12-24T02:52:36.046Z,975.14
2016-12-24T02:53:06.087Z,975.12
2016-12-24T02:53:36.125Z,975.16
2016-12-24T02:54:06.164Z,975.06
2016-12-24T02:54:36.204Z,975.02
2016-12-24T02:55:06.243Z,975.05
2016-12-24T02:55:36.282Z,975.01
2016-12-24T02:56:06.322Z,975.01
2016-12-24T02:56:36.362Z,974.99
2016-12-24T02:57:06.401Z,975.02
2016-12-24T02:57:36.442Z,974.98
2016-12-24T02:58:06.481Z,975
2016-12-24T02:58:36.522Z,974.98
2016-12-24T02:59:06.609Z,974.97
2016-12-24T02:59:36.599Z,974.91
2016-12-24T03:00:06.636Z,974.91
2016-12-24T03:00:36.678Z,974.88
2016-12-24T03:01:06.721Z,974.9
2016-12-24T03:01:36.756Z,974.87
2016-12-24T03:02:06.796Z,974.83
2016-12-24T03:02:36.837Z,974.85
2016-12-24T03:03:06.875Z,974.79
2016-12-24T03:03:36.917Z,974.75
2016-12-24T03:04:06.957Z,974.74
2016-12-24T03:04:36.994Z,974.8
2016-12-24T03:05:07.034Z,974.79
2016-12-24T03:05:37.073Z,974.79
2016-12-24T03:06:07.113Z,974.84
2016-12-24T03:06:37.156Z,974.81
2016-12-24T03:07:07.191Z,974.78
2016-12-24T03:07:37.233Z,974.78
2016-12-24T03:08:07.272Z,974.82
2016-12-24T03:08:37.310Z,974.82
2016-12-24T03:09:07.350Z,974.85
2016-12-24T03:09:37.393Z,974.78
2016-12-24T03:10:07.430Z,974.84
2016-12-24T03:10:37.467Z,974.81
2016-12-24T03:11:07.509Z,974.82
2016-12-24T03:11:37.549Z,974.81
2016-12-24T03:12:07.593Z,974.8
2016-12-24T03:12:37.627Z,974.78
2016-12-24T03:13:07.667Z,974.78
2016-12-24T03:13:37.707Z,974.79
2016-12-24T03:14:07.748Z,974.81
2016-12-24T03:14:37.785Z,974.77
2016-12-24T03:15:07.823Z,974.72
2016-12-24T03:15:37.869Z,974.79
2016-12-24T03:16:07.903Z,974.76
2016-12-24T03:16:37.943Z,974.71
2016-12-24T03:17:07.981Z,974.76
2016-12-24T03:17:38.022Z,974.76
2016-12-24T03:18:08.063Z,974.73
2016-12-24T03:18:38.103Z,974.76
2016-12-24T03:19:08.140Z,974.77
2016-12-24T03:19:38.178Z,974.75
2016-12-24T03:20:08.218Z,974.75
2016-12-24T03:20:38.258Z,974.75
2016-12-24T03:21:08.300Z,974.73
2016-12-24T03:21:38.339Z,974.72
2016-12-24T03:22:08.377Z,974.73
2016-12-24T03:22:38.415Z,974.7
2016-12-24T03:23:08.458Z,974.66
2016-12-24T03:23:38.499Z,974.72
2016-12-24T03:24:08.538Z,974.69
2016-12-24T03:24:38.575Z,974.71
2016-12-24T03:25:08.615Z,974.69
2016-12-24T03:25:38.653Z,974.68
2016-12-24T03:26:08.693Z,974.71
2016-12-24T03:26:38.733Z,974.67
2016-12-24T03:27:08.774Z,974.71
2016-12-24T03:27:38.812Z,974.72
2016-12-24T03:28:08.853Z,974.69
2016-12-24T03:28:38.893Z,974.73
2016-12-24T03:29:08.933Z,974.73
2016-12-24T03:29:38.970Z,974.74
2016-12-24T03:30:09.011Z,974.74
2016-12-24T03:30:39.051Z,974.71
2016-12-24T03:31:09.089Z,974.69
2016-12-24T03:31:39.130Z,974.69
2016-12-24T03:32:09.168Z,974.67
2016-12-24T03:32:39.209Z,974.62
2016-12-24T03:33:09.246Z,974.7
2016-12-24T03:33:39.285Z,974.7
2016-12-24T03:34:09.332Z,974.71
2016-12-24T03:34:39.364Z,974.7
2016-12-24T03:35:09.404Z,974.62
2016-12-24T03:35:39.444Z,974.68
2016-12-24T03:36:09.485Z,974.72
2016-12-24T03:36:39.522Z,974.7
2016-12-24T03:37:09.564Z,974.69
2016-12-24T03:37:39.603Z,974.68
2016-12-24T03:38:09.644Z,974.66
2016-12-24T03:38:39.682Z,974.64
2016-12-24T03:39:09.721Z,974.64
2016-12-24T03:39:39.762Z,974.65
2016-12-24T03:40:09.801Z,974.59
2016-12-24T03:40:39.841Z,974.58
2016-12-24T03:41:09.880Z,974.54
2016-12-24T03:41:39.922Z,974.55
2016-12-24T03:42:09.960Z,974.54
2016-12-24T03:42:39.998Z,974.53
2016-12-24T03:43:10.036Z,974.54
2016-12-24T03:43:40.077Z,974.54
2016-12-24T03:44:10.118Z,974.6
2016-12-24T03:44:40.155Z,974.55
2016-12-24T03:45:10.196Z,974.55
2016-12-24T03:45:40.233Z,974.54
2016-12-24T03:46:10.274Z,974.49
2016-12-24T03:46:40.314Z,974.5
2016-12-24T03:47:10.355Z,974.53
2016-12-24T03:47:40.391Z,974.53
2016-12-24T03:48:10.436Z,974.52
2016-12-24T03:48:40.475Z,974.49
2016-12-24T03:49:10.524Z,974.52
2016-12-24T03:49:40.551Z,974.51
2016-12-24T03:50:10.591Z,974.48
2016-12-24T03:50:40.633Z,974.49
2016-12-24T03:51:10.671Z,974.44
2016-12-24T03:51:40.712Z,974.5
2016-12-24T03:52:10.751Z,974.5
2016-12-24T03:52:40.789Z,974.44
2016-12-24T03:53:10.828Z,974.47
2016-12-24T03:53:40.870Z,974.52
2016-12-24T03:54:10.906Z,974.43
2016-12-24T03:54:40.945Z,974.46
2016-12-24T03:55:10.985Z,974.45
2016-12-24T03:55:41.028Z,974.44
2016-12-24T03:56:11.066Z,974.42
2016-12-24T03:56:41.106Z,974.42
2016-12-24T03:57:11.145Z,974.47
2016-12-24T03:57:41.185Z,974.42
2016-12-24T03:58:11.224Z,974.5
2016-12-24T03:58:41.263Z,974.46
2016-12-24T03:59:11.303Z,974.49
2016-12-24T03:59:41.344Z,974.51
2016-12-24T04:00:11.385Z,974.52
2016-12-24T04:00:41.424Z,974.54
2016-12-24T04:01:11.463Z,974.57
2016-12-24T04:01:41.502Z,974.56
2016-12-24T04:02:11.540Z,974.5
2016-12-24T04:02:41.577Z,974.57
2016-12-24T04:03:11.621Z,974.55
2016-12-24T04:03:41.659Z,974.54
2016-12-24T04:04:11.698Z,974.52
2016-12-24T04:04:41.737Z,974.6
2016-12-24T04:05:11.778Z,974.59
2016-12-24T04:05:41.817Z,974.62
2016-12-24T04:06:11.858Z,974.57
2016-12-24T04:06:41.899Z,974.63
2016-12-24T04:07:11.937Z,974.6
2016-12-24T04:07:41.978Z,974.63
2016-12-24T04:08:12.015Z,974.62
2016-12-24T04:08:42.055Z,974.63
2016-12-24T04:09:12.094Z,974.57
2016-12-24T04:09:42.135Z,974.62
2016-12-24T04:10:12.173Z,974.62
2016-12-24T04:10:42.212Z,974.63
2016-12-24T04:11:12.253Z,974.62
2016-12-24T04:11:42.293Z,974.65
2016-12-24T04:12:12.331Z,974.63
2016-12-24T04:12:42.370Z,974.68
2016-12-24T04:13:12.412Z,974.64
2016-12-24T04:13:42.448Z,974.64
2016-12-24T04:14:12.489Z,974.63
2016-12-24T04:14:42.528Z,974.64
2016-12-24T04:15:12.571Z,974.63
2016-12-24T04:15:42.607Z,974.62
2016-12-24T04:16:12.645Z,974.61
2016-12-24T04:16:42.686Z,974.6
2016-12-24T04:17:12.726Z,974.59
2016-12-24T04:17:42.767Z,974.56
2016-12-24T04:18:12.807Z,974.55
2016-12-24T04:18:42.846Z,974.56
2016-12-24T04:19:12.887Z,974.56
2016-12-24T04:19:42.935Z,974.54
2016-12-24T04:20:12.967Z,974.56
2016-12-24T04:20:43.006Z,974.57
2016-12-24T04:21:13.044Z,974.52
2016-12-24T04:21:43.083Z,974.5
2016-12-24T04:22:13.122Z,974.47
2016-12-24T04:22:43.164Z,974.5
2016-12-24T04:23:13.202Z,974.49
2016-12-24T04:23:43.241Z,974.51
2016-12-24T04:24:13.284Z,974.49
2016-12-24T04:24:43.324Z,974.51
2016-12-24T04:25:13.361Z,974.45
2016-12-24T04:25:43.398Z,974.49
2016-12-24T04:26:13.438Z,974.52
2016-12-24T04:26:43.480Z,974.47
2016-12-24T04:27:13.518Z,974.49
2016-12-24T04:27:43.558Z,974.5
2016-12-24T04:28:13.598Z,974.5
2016-12-24T04:28:43.637Z,974.46
2016-12-24T04:29:13.676Z,974.43
2016-12-24T04:29:43.715Z,974.42
2016-12-24T04:30:13.754Z,974.44
2016-12-24T04:30:43.797Z,974.44
2016-12-24T04:31:13.834Z,974.45
2016-12-24T04:31:43.873Z,974.41
2016-12-24T04:32:13.912Z,974.4
2016-12-24T04:32:43.952Z,974.45
2016-12-24T04:33:13.994Z,974.41
2016-12-24T04:33:44.031Z,974.47
2016-12-24T04:34:14.072Z,974.45
2016-12-24T04:34:44.111Z,974.45
2016-12-24T04:35:14.152Z,974.48
2016-12-24T04:35:44.191Z,974.46
2016-12-24T04:36:14.229Z,974.39
2016-12-24T04:36:44.265Z,974.5
2016-12-24T04:37:14.308Z,974.45
2016-12-24T04:37:44.347Z,974.44
2016-12-24T04:38:14.388Z,974.5
2016-12-24T04:38:44.428Z,974.44
2016-12-24T04:39:14.465Z,974.51
2016-12-24T04:39:44.505Z,974.5
2016-12-24T04:40:14.544Z,974.54
2016-12-24T04:40:44.581Z,974.54
2016-12-24T04:41:14.624Z,974.54
2016-12-24T04:41:44.664Z,974.58
2016-12-24T04:42:14.705Z,974.57
2016-12-24T04:42:44.744Z,974.54
2016-12-24T04:43:14.782Z,974.6
2016-12-24T04:43:44.826Z,974.58
2016-12-24T04:44:14.862Z,974.6
2016-12-24T04:44:44.902Z,974.58
2016-12-24T04:45:14.949Z,974.57
2016-12-24T04:45:44.977Z,974.58
2016-12-24T04:46:15.018Z,974.56
2016-12-24T04:46:45.059Z,974.59
2016-12-24T04:47:15.097Z,974.52
2016-12-24T04:47:45.136Z,974.58
2016-12-24T04:48:15.175Z,974.56
2016-12-24T04:48:45.219Z,974.59
2016-12-24T04:49:15.258Z,974.56
2016-12-24T04:49:45.297Z,974.54
2016-12-24T04:50:15.335Z,974.57
2016-12-24T04:50:45.375Z,974.53
2016-12-24T04:51:15.414Z,974.53
2016-12-24T04:51:45.455Z,974.52
2016-12-24T04:52:15.494Z,974.5
2016-12-24T04:52:45.534Z,974.53
2016-12-24T04:53:15.573Z,974.53
2016-12-24T04:53:45.612Z,974.56
2016-12-24T04:54:15.653Z,974.52
2016-12-24T04:54:45.691Z,974.52
2016-12-24T04:55:15.731Z,974.55
2016-12-24T04:55:45.772Z,974.5
2016-12-24T04:56:15.810Z,974.53
2016-12-24T04:56:45.848Z,974.55
2016-12-24T04:57:15.890Z,974.56
2016-12-24T04:57:45.931Z,974.54
2016-12-24T04:58:15.969Z,974.52
2016-12-24T04:58:46.010Z,974.58
2016-12-24T04:59:16.048Z,974.58
2016-12-24T04:59:46.086Z,974.51
2016-12-24T05:00:16.126Z,974.51
2016-12-24T05:00:46.165Z,974.52
2016-12-24T05:01:16.206Z,974.51
2016-12-24T05:01:46.246Z,974.55
2016-12-24T05:02:16.284Z,974.57
2016-12-24T05:02:46.324Z,974.58
2016-12-24T05:03:16.364Z,974.53
2016-12-24T05:03:46.406Z,974.52
2016-12-24T05:04:16.442Z,974.53
2016-12-24T05:04:46.480Z,974.5
2016-12-24T05:05:16.523Z,974.47
2016-12-24T05:05:46.562Z,974.5
2016-12-24T05:06:16.601Z,974.53
2016-12-24T05:06:46.641Z,974.55
2016-12-24T05:07:16.681Z,974.51
2016-12-24T05:07:46.725Z,974.52
2016-12-24T05:08:16.760Z,974.49
2016-12-24T05:08:46.802Z,974.42
2016-12-24T05:09:16.841Z,974.5
2016-12-24T05:09:46.878Z,974.42
2016-12-24T05:10:16.917Z,974.44
2016-12-24T05:10:46.955Z,974.39
2016-12-24T05:11:16.995Z,974.37
2016-12-24T05:11:47.037Z,974.31
2016-12-24T05:12:17.076Z,974.36
2016-12-24T05:12:47.114Z,974.34
2016-12-24T05:13:17.156Z,974.36
2016-12-24T05:13:47.195Z,974.31
2016-12-24T05:14:17.234Z,974.31
2016-12-24T05:14:47.275Z,974.32
2016-12-24T05:15:17.313Z,974.26
2016-12-24T05:15:47.353Z,974.28
2016-12-24T05:16:17.393Z,974.29
2016-12-24T05:16:47.432Z,974.27
2016-12-24T05:17:17.471Z,974.25
2016-12-24T05:17:47.510Z,974.2
2016-12-24T05:18:17.551Z,974.19
2016-12-24T05:18:47.591Z,974.21
2016-12-24T05:19:17.627Z,974.21
2016-12-24T05:19:47.669Z,974.2
2016-12-24T05:20:17.708Z,974.21
2016-12-24T05:20:47.746Z,974.19
2016-12-24T05:21:17.787Z,974.19
2016-12-24T05:21:47.826Z,974.16
2016-12-24T05:22:17.866Z,974.19
2016-12-24T05:22:47.905Z,974.22
2016-12-24T05:23:17.944Z,974.18
2016-12-24T05:23:47.985Z,974.2
2016-12-24T05:24:18.025Z,974.19
2016-12-24T05:24:48.063Z,974.22
2016-12-24T05:25:18.103Z,974.24
2016-12-24T05:25:48.146Z,974.21
2016-12-24T05:26:18.181Z,974.23
2016-12-24T05:26:48.223Z,974.25
2016-12-24T05:27:18.261Z,974.24
2016-12-24T05:27:48.302Z,974.22
2016-12-24T05:28:18.339Z,974.24
2016-12-24T05:28:48.382Z,974.22
2016-12-24T05:29:18.418Z,974.22
2016-12-24T05:29:48.464Z,974.24
2016-12-24T05:30:18.499Z,974.25
2016-12-24T05:30:48.537Z,974.26
2016-12-24T05:31:18.580Z,974.27
2016-12-24T05:31:48.618Z,974.27
2016-12-24T05:32:18.656Z,974.31
2016-12-24T05:32:48.697Z,974.32
2016-12-24T05:33:18.740Z,974.39
2016-12-24T05:33:48.775Z,974.4
2016-12-24T05:34:18.815Z,974.4
2016-12-24T05:34:48.854Z,974.41
2016-12-24T05:35:18.894Z,974.42
2016-12-24T05:35:48.935Z,974.46
2016-12-24T05:36:18.973Z,974.47
2016-12-24T05:36:49.013Z,974.43
2016-12-24T05:37:19.054Z,974.44
2016-12-24T05:37:49.090Z,974.44
2016-12-24T05:38:19.133Z,974.46
2016-12-24T05:38:49.171Z,974.53
2016-12-24T05:39:19.211Z,974.48
2016-12-24T05:39:49.258Z,974.5
2016-12-24T05:40:19.290Z,974.46
2016-12-24T05:40:49.328Z,974.44
2016-12-24T05:41:19.368Z,974.48
2016-12-24T05:41:49.408Z,974.4
2016-12-24T05:42:19.449Z,974.44
2016-12-24T05:42:49.486Z,974.37
2016-12-24T05:43:19.527Z,974.41
2016-12-24T05:43:49.564Z,974.38
2016-12-24T05:44:19.606Z,974.34
2016-12-24T05:44:49.644Z,974.36
2016-12-24T05:45:19.686Z,974.35
2016-12-24T05:45:49.726Z,974.32
2016-12-24T05:46:19.763Z,974.32
2016-12-24T05:46:49.804Z,974.33
2016-12-24T05:47:19.842Z,974.3
2016-12-24T05:47:49.881Z,974.34
2016-12-24T05:48:19.922Z,974.31
2016-12-24T05:48:49.959Z,974.28
2016-12-24T05:49:20.000Z,974.24
2016-12-24T05:49:50.048Z,974.22
2016-12-24T05:50:20.080Z,974.21
2016-12-24T05:50:50.118Z,974.19
2016-12-24T05:51:20.156Z,974.17
2016-12-24T05:51:50.197Z,974.17
2016-12-24T05:52:20.234Z,974.17
2016-12-24T05:52:50.276Z,974.22
2016-12-24T05:53:20.317Z,974.2
2016-12-24T05:53:50.356Z,974.19
2016-12-24T05:54:20.394Z,974.2
2016-12-24T05:54:50.439Z,974.14
2016-12-24T05:55:20.475Z,974.14
2016-12-24T05:55:50.513Z,974.13
2016-12-24T05:56:20.554Z,974.12
2016-12-24T05:56:50.593Z,974.15
2016-12-24T05:57:20.632Z,974.12
2016-12-24T05:57:50.674Z,974.16
2016-12-24T05:58:20.713Z,974.18
2016-12-24T05:58:50.752Z,974.18
2016-12-24T05:59:20.792Z,974.17
2016-12-24T05:59:50.832Z,974.19
2016-12-24T06:00:20.869Z,974.18
2016-12-24T06:00:50.911Z,974.18
2016-12-24T06:01:20.950Z,974.18
2016-12-24T06:01:50.991Z,974.13
2016-12-24T06:02:21.028Z,974.18
2016-12-24T06:02:51.068Z,974.17
2016-12-24T06:03:21.106Z,974.23
2016-12-24T06:03:51.145Z,974.21
2016-12-24T06:04:21.185Z,974.25
2016-12-24T06:04:51.226Z,974.22
2016-12-24T06:05:21.263Z,974.2
2016-12-24T06:05:51.305Z,974.22
2016-12-24T06:06:21.343Z,974.19
2016-12-24T06:06:51.383Z,974.17
2016-12-24T06:07:21.424Z,974.17
2016-12-24T06:07:51.463Z,974.19
2016-12-24T06:08:21.504Z,974.14
2016-12-24T06:08:51.543Z,974.16
2016-12-24T06:09:21.582Z,974.08
2016-12-24T06:09:51.622Z,974.11
2016-12-24T06:10:21.661Z,974.11
2016-12-24T06:10:51.701Z,974.13
2016-12-24T06:11:21.741Z,974.11
2016-12-24T06:11:51.779Z,974.12
2016-12-24T06:12:21.819Z,974.11
2016-12-24T06:12:51.858Z,974.12
2016-12-24T06:13:21.897Z,974.07
2016-12-24T06:13:51.936Z,974.08
2016-12-24T06:14:21.976Z,974.06
2016-12-24T06:14:52.016Z,974.11
2016-12-24T06:15:22.065Z,974.12
2016-12-24T06:15:52.095Z,974.09
2016-12-24T06:16:22.134Z,974.13